Portada
METAR-TAF:

METAR-TAF

Aeropuertos :

Ad Dawadimi, Arabia Saudita

latitud: 24-26-59N, longitud: 044-07-16E, altitud: 922 m

Observación

El informe se hizo hace 42 minutos, a las 08:00 UTC
Viento 8 kt del este-sureste
Temperatura 33°C
Humedad 24%
Presión 1017 hPa
Visibilidad: 7000 m

METAR: OEDM 260800Z 12008KT 7000 NSC 33/10 Q1017

Hora: 11:42 (08:42 UTC)


TAF: falta

Observaciones y pronósticos meteorológicos de más de 4000 aeropuertos (mensajes METAR y TAF).

Los puntos amarillos y rojos representan las estaciones disponibles.

Ponga el ratón en el punto deseado para ver el nombre de la estación.

Haga clic para ver las observaciones y los pronósticos meteorológicos.

Para cambiar el mapa : haga clic en los botones verdes con una cruz de color negro para hacer un zoom, en el botón verde con un guión para alejar o en las flechas verdes para mapas adyacentes.


METAR-TAF: